Time;durP1;ratioP1;P1;durP2;ratioP2;P2;SDS_P1;SDS_P2;PMS_P1;PMS_P2;Temp;Humidity;BMP_temperature;BMP_pressure;BME280_temperature;BME280_humidity;BME280_pressure;Samples;Min_cycle;Max_cycle;Signal;HPM_P1;HPM_P2
2022/07/05 00:03:02;;;;;;;4.30;3.45;;;;;;;19.61;95.17;100631.10;714201;1174;115470;-81
2022/07/05 00:18:05;;;;;;;4.77;4.10;;;;;;;19.38;95.87;100647.20;714223;1174;115696;-81
2022/07/05 00:33:07;;;;;;;4.60;4.10;;;;;;;19.07;96.66;100645.53;714043;1174;115543;-80
2022/07/05 00:48:09;;;;;;;5.10;4.18;;;;;;;18.85;97.35;100652.55;713850;1174;115475;-80
2022/07/05 01:03:13;;;;;;;7.15;5.08;;;;;;;19.47;93.25;100642.62;714050;1174;115709;-80
2022/07/05 01:18:16;;;;;;;11.63;5.93;;;;;;;18.35;99.22;100633.55;713966;1174;115410;-81
2022/07/05 01:33:18;;;;;;;8.25;6.18;;;;;;;18.08;100.00;100644.52;713788;1174;115633;-80
2022/07/05 01:48:22;;;;;;;8.35;5.25;;;;;;;17.98;100.00;100625.33;714026;1174;115668;-80
2022/07/05 02:03:27;;;;;;;9.63;6.60;;;;;;;17.53;100.00;100629.53;713850;1174;115587;-80
2022/07/05 02:18:49;;;;;;;12.20;8.13;;;;;;;17.48;100.00;100643.30;714117;1174;114763;-80
2022/07/05 02:33:52;;;;;;;10.10;6.80;;;;;;;17.53;100.00;100654.22;714186;1173;115793;-82
2022/07/05 02:48:54;;;;;;;14.43;8.23;;;;;;;17.50;100.00;100653.73;715273;1173;114411;-81
2022/07/05 03:04:00;;;;;;;11.70;7.63;;;;;;;17.56;100.00;100651.21;714178;1173;115142;-78
2022/07/05 03:19:02;;;;;;;13.73;7.53;;;;;;;17.57;100.00;100655.52;714393;1174;116026;-79
2022/07/05 03:34:04;;;;;;;11.00;7.65;;;;;;;17.75;100.00;100676.52;714334;1173;115800;-79
2022/07/05 03:49:06;;;;;;;13.40;7.20;;;;;;;18.21;100.00;100677.61;714625;1174;115260;-78
2022/07/05 04:04:09;;;;;;;9.05;7.18;;;;;;;18.74;100.00;100678.55;714352;1174;115251;-79
2022/07/05 04:19:11;;;;;;;37.55;17.55;;;;;;;19.19;100.00;100686.64;714583;1174;114951;-80
2022/07/05 04:34:14;;;;;;;9.88;6.23;;;;;;;19.70;100.00;100677.88;714167;1174;115900;-82
2022/07/05 04:49:16;;;;;;;7.60;5.33;;;;;;;20.16;99.97;100689.30;713849;1174;115709;-81
2022/07/05 05:04:18;;;;;;;7.30;5.03;;;;;;;20.50;99.11;100691.28;714180;1174;115421;-89
2022/07/05 05:19:26;;;;;;;6.25;3.80;;;;;;;21.11;97.08;100696.13;714154;1174;114678;-73
2022/07/05 05:34:32;;;;;;;5.53;3.15;;;;;;;21.50;93.17;100703.71;714104;1174;114913;-77
2022/07/05 05:49:35;;;;;;;3.10;1.85;;;;;;;22.03;89.46;100717.33;714155;1173;114030;-79
2022/07/05 06:04:37;;;;;;;2.73;1.70;;;;;;;22.52;84.99;100727.97;713981;1174;114730;-82
2022/07/05 06:19:40;;;;;;;1.93;1.40;;;;;;;23.05;80.67;100727.96;714592;1174;115382;-81
2022/07/05 06:34:43;;;;;;;1.88;1.00;;;;;;;23.41;78.21;100737.43;715301;1174;114561;-82
2022/07/05 06:49:45;;;;;;;2.55;1.10;;;;;;;24.01;74.29;100741.78;714356;1174;114141;-81
2022/07/05 07:04:48;;;;;;;2.25;1.73;;;;;;;24.65;72.80;100739.14;714230;1174;115591;-74
2022/07/05 07:20:11;;;;;;;3.78;0.70;;;;;;;25.44;69.56;100757.48;714763;1174;115343;-73
2022/07/05 07:35:14;;;;;;;2.47;1.07;;;;;;;25.83;67.46;100759.97;714349;1174;114950;-75
2022/07/05 07:50:16;;;;;;;0.93;0.83;;;;;;;26.78;65.52;100763.86;714139;1174;114307;-74
2022/07/05 08:05:18;;;;;;;2.40;2.07;;;;;;;27.16;65.17;100764.46;713745;1177;114802;-73
2022/07/05 08:35:42;;;;;;;2.03;1.28;;;;;;;28.01;64.27;100756.86;714093;1174;114834;-73
2022/07/05 08:50:47;;;;;;;2.60;1.20;;;;;;;28.71;63.47;100753.02;714378;1174;114888;-74
2022/07/05 09:05:52;;;;;;;2.30;0.70;;;;;;;28.21;57.64;100748.36;714171;1174;115439;-72
2022/07/05 09:21:11;;;;;;;0.70;0.60;;;;;;;29.33;59.32;100759.37;717154;1174;115651;-73
2022/07/05 09:36:14;;;;;;;1.85;1.00;;;;;;;29.35;57.34;100757.25;715319;1174;114977;-73
2022/07/05 09:51:16;;;;;;;0.60;0.60;;;;;;;29.04;57.27;100755.96;714775;1174;114880;-80
2022/07/05 10:06:38;;;;;;;1.40;0.70;;;;;;;29.62;55.81;100758.41;714284;1173;114845;-81
2022/07/05 10:21:43;;;;;;;0.60;0.60;;;;;;;29.27;56.16;100754.95;714298;1174;115768;-82
2022/07/05 10:37:06;;;;;;;0.55;0.40;;;;;;;28.75;52.24;100749.84;714352;1174;114714;-81
2022/07/05 10:52:23;;;;;;;1.10;0.68;;;;;;;30.51;50.59;100746.41;714337;1174;114859;-83
2022/07/05 11:07:58;;;;;;;0.65;0.40;;;;;;;29.99;51.71;100730.73;714356;1174;114836;-81
2022/07/05 11:23:02;;;;;;;1.83;0.60;;;;;;;30.81;51.44;100727.95;714250;1174;114818;-80
2022/07/05 11:38:07;;;;;;;0.40;0.30;;;;;;;30.54;50.92;100712.61;714187;1174;115311;-81
2022/07/05 11:53:31;;;;;;;0.95;0.50;;;;;;;31.49;50.69;100700.16;714064;1173;114582;-82
2022/07/05 12:09:05;;;;;;;1.30;0.60;;;;;;;31.15;49.61;100703.28;714034;1174;114984;-83
2022/07/05 12:24:07;;;;;;;1.10;0.70;;;;;;;32.05;49.54;100688.67;714341;1174;114725;-81
2022/07/05 12:39:10;;;;;;;1.97;0.83;;;;;;;31.76;48.64;100681.03;715117;1174;114172;-82
2022/07/05 13:09:46;;;;;;;0.53;0.50;;;;;;;32.15;49.43;100663.44;714443;1173;114210;-81
2022/07/05 13:24:48;;;;;;;2.48;0.95;;;;;;;32.88;49.92;100639.80;714162;1174;115450;-81
2022/07/05 13:39:50;;;;;;;0.63;0.63;;;;;;;33.25;48.79;100642.08;714724;1174;114982;-80
2022/07/05 13:54:53;;;;;;;1.40;0.73;;;;;;;32.27;48.67;100628.75;714530;1174;114198;-81
2022/07/05 14:09:55;;;;;;;0.83;0.77;;;;;;;31.20;47.48;100622.04;714529;1174;114998;-80
2022/07/05 14:24:58;;;;;;;2.03;0.50;;;;;;;31.19;48.37;100614.98;714557;1174;114630;-80
2022/07/05 14:40:00;;;;;;;1.95;0.98;;;;;;;31.45;48.91;100612.34;714528;1174;114990;-78
2022/07/05 14:55:03;;;;;;;1.15;0.60;;;;;;;31.32;48.53;100602.84;714364;1174;115488;-78
2022/07/05 15:10:07;;;;;;;1.03;0.70;;;;;;;30.94;48.56;100597.52;714685;1174;114074;-77
2022/07/05 15:25:10;;;;;;;0.35;0.35;;;;;;;30.28;48.99;100579.80;716490;1174;114191;-87
2022/07/05 15:40:12;;;;;;;1.93;0.60;;;;;;;29.80;48.93;100568.85;717246;1173;114774;-88
2022/07/05 15:55:15;;;;;;;2.55;0.70;;;;;;;30.05;49.66;100567.44;717871;1174;114569;-86
2022/07/05 16:10:20;;;;;;;1.33;0.50;;;;;;;29.29;50.36;100573.75;716699;1173;115593;-87
2022/07/05 16:25:38;;;;;;;1.83;1.03;;;;;;;29.10;50.44;100557.02;717945;1174;116045;-90
2022/07/05 16:40:41;;;;;;;1.15;1.05;;;;;;;29.28;50.97;100564.81;716892;1174;115407;-86
2022/07/05 16:55:43;;;;;;;1.03;0.83;;;;;;;29.07;50.75;100554.83;718775;1174;115759;-81
2022/07/05 17:10:46;;;;;;;1.07;0.97;;;;;;;29.11;51.01;100559.46;716613;1174;115076;-80
2022/07/05 17:25:49;;;;;;;1.68;1.53;;;;;;;28.75;51.90;100559.03;715233;1174;115778;-79
2022/07/05 17:40:52;;;;;;;2.43;1.80;;;;;;;28.51;53.25;100547.63;714431;1176;114414;-81
2022/07/05 17:55:55;;;;;;;7.08;4.38;;;;;;;27.92;52.99;100546.16;714810;1174;115352;-87
2022/07/05 18:10:58;;;;;;;3.93;3.13;;;;;;;27.15;55.25;100545.58;715595;1174;115406;-80
2022/07/05 18:26:01;;;;;;;7.73;4.00;;;;;;;26.57;58.08;100541.94;714603;1174;115025;-78
2022/07/05 18:41:04;;;;;;;10.93;3.87;;;;;;;26.11;60.83;100581.20;714498;1173;115005;-79
2022/07/05 18:56:07;;;;;;;5.03;1.63;;;;;;;25.06;65.77;100579.47;714721;1176;114321;-78
2022/07/05 19:26:45;;;;;;;5.13;2.20;;;;;;;23.17;70.96;100634.53;714480;1174;114192;-80
2022/07/05 19:41:50;;;;;;;4.45;1.25;;;;;;;22.62;72.39;100652.70;714815;1173;114863;-78
2022/07/05 19:56:52;;;;;;;3.45;1.83;;;;;;;22.08;71.45;100669.47;715001;1174;115330;-78
2022/07/05 20:11:55;;;;;;;2.50;1.58;;;;;;;21.74;70.33;100665.06;714670;1174;115515;-77
2022/07/05 20:27:04;;;;;;;;;;;;;;;21.59;71.60;100659.85;714481;1173;115223;-77
2022/07/05 20:42:12;;;;;;;3.80;1.60;;;;;;;21.57;70.59;100669.92;714318;1173;101642;-78
2022/07/05 20:57:15;;;;;;;3.90;1.37;;;;;;;21.42;70.67;100670.03;714325;1174;115325;-78
2022/07/05 21:12:18;;;;;;;4.98;1.45;;;;;;;21.41;71.44;100695.88;714062;1174;114832;-78
2022/07/05 21:27:21;;;;;;;2.98;1.33;;;;;;;21.30;71.46;100690.27;714560;1173;114493;-78
2022/07/05 21:42:24;;;;;;;3.60;1.60;;;;;;;20.75;75.17;100674.92;714177;1174;115159;-77
2022/07/05 21:57:26;;;;;;;2.50;1.50;;;;;;;20.40;79.00;100694.27;714170;1174;114281;-78
2022/07/05 22:12:29;;;;;;;4.80;2.30;;;;;;;19.76;84.56;100697.63;714309;1174;115232;-76
2022/07/05 22:27:32;;;;;;;2.60;1.65;;;;;;;19.41;87.71;100671.61;714351;1174;115190;-77
2022/07/05 22:42:35;;;;;;;5.63;2.33;;;;;;;19.62;87.22;100680.66;714306;1173;115059;-77
2022/07/05 22:57:38;;;;;;;6.63;2.20;;;;;;;19.46;88.47;100671.04;714439;1174;114744;-77
2022/07/05 23:12:40;;;;;;;3.95;2.40;;;;;;;19.31;88.58;100660.41;714334;1173;114399;-78
2022/07/05 23:27:42;;;;;;;4.20;2.10;;;;;;;19.22;89.28;100658.86;714121;1174;114807;-79
2022/07/05 23:42:44;;;;;;;4.13;2.45;;;;;;;19.03;90.05;100654.88;714096;1174;115411;-78
2022/07/05 23:57:46;;;;;;;5.25;2.60;;;;;;;18.85;90.99;100665.84;714521;1174;114725;-78
